South Bend, Indiana
Current Conditions -  °F | °C
As of 5:15 PM on Thursday 18 Dec 2014 (Local Time) from KSBN Reporting Station
Overcast Overcast  
Wind Chill: 21°   Ceiling: 2500
Heat Index: 28°   Visibility: 9mi
Dew Point: 21°   Wind: 7mph
Humidity: 75%   Direction: 260°W
Pressure: 30.22"   Gusts: NA
Location:  41.68°N, 86.25°W
Report Text: KSBN 182215Z 26006KT 9SM SCT016 OVC025 M02/M06 A3022 RMK AO2 T10221061
Loading
Personal Weather Stations






























Interactive Weather Map New forecast layout! Learn more

10-Day Weather Forecast

Advertisements
Track Severe Weather on mobile